EIN34Y LSZH-EIDW
Flight info
| Callsign | EIN34Y |
|---|---|
| Flight time | 1h 54m |
| Altitude | 38000 |
| Route | VEBIT T10 TORPA DCT REKLA DCT RLP DCT ROTSI DCT KOTUN DCT AMAXA DCT VESAN DCT RATUK DCT SOVAT DCT OKSAW DCT TEWXI DCT LANON L18 ABLIN ABLIN4L |
| Aircraft | A320/M-SDE3FGHIRWY/LB1 |
Departure
| Time | 2026-05-04 17:26 |
|---|---|
| Airport | Zürich Airport (LSZH) |
Arrival
| Time | 2026-05-04 19:20 |
|---|---|
| Airport | Dublin Airport (EIDW) |
| Time | Latitude | Longitude | Altitude | Speed | Heading |
|---|---|---|---|---|---|
| 2026-05-04 17:00 | 47.45425 | 8.55803 | 1407 ft | 0 kts | 187° |
| 2026-05-04 17:16 | 47.45432 | 8.55804 | 1415 ft | 4 kts | 186° |
| 2026-05-04 17:16 | 47.45505 | 8.55786 | 1407 ft | 3 kts | 103° |
| 2026-05-04 17:17 | 47.45506 | 8.55781 | 1407 ft | 1 kts | 96° |
| 2026-05-04 17:17 | 47.45506 | 8.55780 | 1407 ft | 0 kts | 96° |
| 2026-05-04 17:20 | 47.45497 | 8.55919 | 1407 ft | 15 kts | 95° |
| 2026-05-04 17:20 | 47.45486 | 8.56064 | 1410 ft | 13 kts | 97° |
| 2026-05-04 17:21 | 47.45514 | 8.56281 | 1412 ft | 10 kts | 52° |
| 2026-05-04 17:21 | 47.45591 | 8.56532 | 1421 ft | 18 kts | 99° |
| 2026-05-04 17:22 | 47.45578 | 8.56709 | 1423 ft | 16 kts | 95° |
| 2026-05-04 17:22 | 47.45567 | 8.56853 | 1420 ft | 13 kts | 96° |
| 2026-05-04 17:23 | 47.45589 | 8.57015 | 1423 ft | 0 kts | 7° |
| 2026-05-04 17:23 | 47.45634 | 8.57023 | 1425 ft | 7 kts | 7° |
| 2026-05-04 17:24 | 47.45664 | 8.56998 | 1424 ft | 5 kts | 282° |
| 2026-05-04 17:24 | 47.45668 | 8.56923 | 1423 ft | 3 kts | 275° |
| 2026-05-04 17:25 | 47.45683 | 8.56731 | 1419 ft | 53 kts | 277° |
| 2026-05-04 17:25 | 47.45859 | 8.54327 | 1554 ft | 159 kts | 277° |
| 2026-05-04 17:26 | 47.46113 | 8.50936 | 2850 ft | 169 kts | 275° |
| 2026-05-04 17:26 | 47.44864 | 8.45592 | 4050 ft | 225 kts | 214° |
| 2026-05-04 17:27 | 47.42657 | 8.42288 | 5499 ft | 235 kts | 234° |
| 2026-05-04 17:27 | 47.40582 | 8.38023 | 6485 ft | 273 kts | 235° |
| 2026-05-04 17:28 | 47.38772 | 8.34096 | 7877 ft | 283 kts | 242° |
| 2026-05-04 17:29 | 47.35951 | 8.26154 | 10273 ft | 302 kts | 241° |
| 2026-05-04 17:29 | 47.32795 | 8.17266 | 12060 ft | 335 kts | 240° |
| 2026-05-04 17:30 | 47.29556 | 8.08161 | 14595 ft | 337 kts | 240° |
| 2026-05-04 17:31 | 47.27602 | 8.01837 | 15995 ft | 345 kts | 253° |
| 2026-05-04 17:31 | 47.27792 | 7.91080 | 17999 ft | 359 kts | 275° |
| 2026-05-04 17:32 | 47.28493 | 7.83738 | 19251 ft | 365 kts | 275° |
| 2026-05-04 17:33 | 47.29545 | 7.72537 | 21005 ft | 374 kts | 275° |
| 2026-05-04 17:33 | 47.29903 | 7.68727 | 21576 ft | 377 kts | 275° |
| 2026-05-04 17:34 | 47.31679 | 7.57255 | 23195 ft | 391 kts | 284° |
| 2026-05-04 17:34 | 47.32517 | 7.53433 | 23719 ft | 394 kts | 284° |
| 2026-05-04 17:35 | 47.35055 | 7.41787 | 25160 ft | 402 kts | 284° |
| 2026-05-04 17:35 | 47.36769 | 7.33888 | 26029 ft | 407 kts | 284° |
| 2026-05-04 17:35 | 47.37628 | 7.29893 | 26464 ft | 409 kts | 283° |
| 2026-05-04 17:36 | 47.38490 | 7.25880 | 26880 ft | 412 kts | 283° |
| 2026-05-04 17:36 | 47.39356 | 7.21830 | 27285 ft | 414 kts | 283° |
| 2026-05-04 17:36 | 47.40221 | 7.17775 | 27668 ft | 416 kts | 283° |
| 2026-05-04 17:36 | 47.40991 | 7.13651 | 28020 ft | 416 kts | 278° |
| 2026-05-04 17:37 | 47.41603 | 7.09469 | 28381 ft | 418 kts | 278° |
| 2026-05-04 17:37 | 47.42220 | 7.05273 | 28743 ft | 420 kts | 278° |
| 2026-05-04 17:37 | 47.42845 | 7.01046 | 29084 ft | 422 kts | 278° |
| 2026-05-04 17:37 | 47.43470 | 6.96803 | 29407 ft | 424 kts | 278° |
| 2026-05-04 17:38 | 47.44094 | 6.92541 | 29720 ft | 426 kts | 278° |
| 2026-05-04 17:38 | 47.44720 | 6.88241 | 30048 ft | 428 kts | 277° |
| 2026-05-04 17:38 | 47.45345 | 6.83935 | 30353 ft | 429 kts | 277° |
| 2026-05-04 17:38 | 47.45969 | 6.79608 | 30651 ft | 431 kts | 277° |
| 2026-05-04 17:39 | 47.47214 | 6.70912 | 31215 ft | 434 kts | 277° |
| 2026-05-04 17:39 | 47.47825 | 6.66593 | 31477 ft | 435 kts | 275° |
| 2026-05-04 17:39 | 47.48209 | 6.62184 | 31831 ft | 431 kts | 271° |
| 2026-05-04 17:40 | 47.48530 | 6.57791 | 32205 ft | 429 kts | 271° |
| 2026-05-04 17:40 | 47.48852 | 6.53397 | 32568 ft | 428 kts | 271° |
| 2026-05-04 17:40 | 47.49171 | 6.49031 | 32939 ft | 427 kts | 271° |
| 2026-05-04 17:40 | 47.49485 | 6.44676 | 33296 ft | 425 kts | 270° |
| 2026-05-04 17:41 | 47.49793 | 6.40334 | 33653 ft | 424 kts | 270° |
| 2026-05-04 17:41 | 47.50097 | 6.36002 | 33993 ft | 423 kts | 270° |
| 2026-05-04 17:41 | 47.50396 | 6.31686 | 34337 ft | 422 kts | 270° |
| 2026-05-04 17:41 | 47.50694 | 6.27377 | 34657 ft | 421 kts | 270° |
| 2026-05-04 17:42 | 47.50993 | 6.23070 | 34959 ft | 420 kts | 270° |
| 2026-05-04 17:42 | 47.51291 | 6.18773 | 35245 ft | 419 kts | 270° |
| 2026-05-04 17:42 | 47.51587 | 6.14489 | 35513 ft | 419 kts | 270° |
| 2026-05-04 17:42 | 47.51881 | 6.10205 | 35758 ft | 419 kts | 270° |
| 2026-05-04 17:43 | 47.52173 | 6.05924 | 36016 ft | 418 kts | 270° |
| 2026-05-04 17:43 | 47.52460 | 6.01650 | 36272 ft | 417 kts | 270° |
| 2026-05-04 17:43 | 47.52743 | 5.97376 | 36498 ft | 417 kts | 270° |
| 2026-05-04 17:43 | 47.53020 | 5.93156 | 36708 ft | 417 kts | 271° |
| 2026-05-04 17:44 | 47.53554 | 5.88921 | 37017 ft | 420 kts | 281° |
| 2026-05-04 17:44 | 47.54597 | 5.84873 | 37347 ft | 424 kts | 291° |
| 2026-05-04 17:44 | 47.56131 | 5.81127 | 37586 ft | 429 kts | 302° |
| 2026-05-04 17:44 | 47.58090 | 5.77762 | 37797 ft | 432 kts | 307° |
| 2026-05-04 17:45 | 47.60134 | 5.74490 | 37943 ft | 432 kts | 308° |
| 2026-05-04 17:45 | 47.62168 | 5.71227 | 37993 ft | 431 kts | 307° |
| 2026-05-04 17:45 | 47.66224 | 5.64691 | 37990 ft | 430 kts | 307° |
| 2026-05-04 17:46 | 47.70262 | 5.58158 | 37988 ft | 429 kts | 307° |
| 2026-05-04 17:46 | 47.74297 | 5.51621 | 37984 ft | 430 kts | 307° |
| 2026-05-04 17:47 | 47.78335 | 5.45061 | 37978 ft | 430 kts | 307° |
| 2026-05-04 17:47 | 47.82360 | 5.38495 | 37972 ft | 430 kts | 307° |
| 2026-05-04 17:48 | 47.86385 | 5.31904 | 37979 ft | 430 kts | 307° |
| 2026-05-04 17:48 | 47.90402 | 5.25298 | 37964 ft | 430 kts | 307° |
| 2026-05-04 17:49 | 47.94429 | 5.18678 | 37969 ft | 431 kts | 307° |
| 2026-05-04 17:49 | 47.98460 | 5.12052 | 37966 ft | 431 kts | 307° |
| 2026-05-04 17:50 | 48.02486 | 5.05411 | 37961 ft | 431 kts | 307° |
| 2026-05-04 17:50 | 48.06479 | 4.98805 | 37946 ft | 432 kts | 307° |
| 2026-05-04 17:51 | 48.10496 | 4.92129 | 37941 ft | 432 kts | 307° |
| 2026-05-04 17:51 | 48.14524 | 4.85418 | 37936 ft | 433 kts | 307° |
| 2026-05-04 17:52 | 48.18546 | 4.78692 | 37938 ft | 434 kts | 307° |
| 2026-05-04 17:52 | 48.22581 | 4.71958 | 37931 ft | 435 kts | 307° |
| 2026-05-04 17:53 | 48.26619 | 4.65193 | 37938 ft | 436 kts | 307° |
| 2026-05-04 17:53 | 48.30663 | 4.58417 | 37937 ft | 436 kts | 307° |
| 2026-05-04 17:54 | 48.34706 | 4.51608 | 37937 ft | 437 kts | 307° |
| 2026-05-04 17:54 | 48.38729 | 4.44798 | 37947 ft | 438 kts | 307° |
| 2026-05-04 17:55 | 48.42775 | 4.37952 | 37951 ft | 438 kts | 307° |
| 2026-05-04 17:55 | 48.46817 | 4.31092 | 37963 ft | 437 kts | 307° |
| 2026-05-04 17:56 | 48.50847 | 4.24220 | 37953 ft | 437 kts | 307° |
| 2026-05-04 17:56 | 48.54871 | 4.17334 | 37958 ft | 437 kts | 307° |
| 2026-05-04 17:57 | 48.58901 | 4.10443 | 37951 ft | 437 kts | 307° |
| 2026-05-04 17:57 | 48.62923 | 4.03540 | 37967 ft | 437 kts | 307° |
| 2026-05-04 17:58 | 48.66945 | 3.96638 | 37956 ft | 437 kts | 307° |
| 2026-05-04 17:58 | 48.70958 | 3.89721 | 37953 ft | 437 kts | 307° |
| 2026-05-04 17:59 | 48.75607 | 3.83685 | 37939 ft | 444 kts | 320° |
| 2026-05-04 18:00 | 48.83123 | 3.75496 | 37942 ft | 443 kts | 320° |
| 2026-05-04 18:00 | 48.88094 | 3.70049 | 37935 ft | 444 kts | 320° |
| 2026-05-04 18:01 | 48.93116 | 3.64518 | 37939 ft | 444 kts | 320° |
| 2026-05-04 18:01 | 48.98109 | 3.59022 | 37940 ft | 444 kts | 320° |
| 2026-05-04 18:02 | 49.05610 | 3.50746 | 37941 ft | 444 kts | 320° |
| 2026-05-04 18:02 | 49.10611 | 3.45218 | 37946 ft | 444 kts | 320° |
| 2026-05-04 18:03 | 49.15606 | 3.39659 | 37949 ft | 444 kts | 320° |
| 2026-05-04 18:03 | 49.20591 | 3.34094 | 37944 ft | 444 kts | 320° |
| 2026-05-04 18:04 | 49.25583 | 3.28522 | 37946 ft | 443 kts | 320° |
| 2026-05-04 18:05 | 49.33059 | 3.20164 | 37954 ft | 443 kts | 320° |
| 2026-05-04 18:05 | 49.38004 | 3.14613 | 37960 ft | 443 kts | 320° |
| 2026-05-04 18:06 | 49.45458 | 3.06196 | 37956 ft | 443 kts | 320° |
| 2026-05-04 18:06 | 49.50419 | 3.00581 | 37952 ft | 443 kts | 320° |
| 2026-05-04 18:07 | 49.55389 | 2.94959 | 37949 ft | 443 kts | 320° |
| 2026-05-04 18:07 | 49.60348 | 2.89326 | 37947 ft | 443 kts | 320° |
| 2026-05-04 18:08 | 49.65318 | 2.83665 | 37954 ft | 444 kts | 320° |
| 2026-05-04 18:08 | 49.70278 | 2.77989 | 37957 ft | 444 kts | 320° |
| 2026-05-04 18:09 | 49.80189 | 2.66649 | 37960 ft | 443 kts | 321° |
| 2026-05-04 18:10 | 49.85218 | 2.61085 | 37974 ft | 444 kts | 322° |
| 2026-05-04 18:10 | 49.90254 | 2.55543 | 37962 ft | 444 kts | 322° |
| 2026-05-04 18:11 | 49.95273 | 2.49977 | 37965 ft | 443 kts | 321° |
| 2026-05-04 18:11 | 50.00279 | 2.44389 | 37971 ft | 443 kts | 321° |
| 2026-05-04 18:12 | 50.05235 | 2.38817 | 37968 ft | 442 kts | 321° |
| 2026-05-04 18:12 | 50.10223 | 2.33209 | 37968 ft | 441 kts | 321° |
| 2026-05-04 18:13 | 50.15202 | 2.27599 | 37961 ft | 441 kts | 321° |
| 2026-05-04 18:14 | 50.21827 | 2.20126 | 37968 ft | 441 kts | 321° |
| 2026-05-04 18:14 | 50.26794 | 2.14501 | 37965 ft | 441 kts | 321° |
| 2026-05-04 18:15 | 50.36717 | 2.03176 | 37979 ft | 441 kts | 320° |
| 2026-05-04 18:16 | 50.41484 | 1.97159 | 37985 ft | 440 kts | 316° |
| 2026-05-04 18:16 | 50.46049 | 1.90771 | 37984 ft | 440 kts | 315° |
| 2026-05-04 18:17 | 50.52898 | 1.81174 | 37987 ft | 441 kts | 316° |
| 2026-05-04 18:18 | 50.59850 | 1.71676 | 37995 ft | 441 kts | 316° |
| 2026-05-04 18:18 | 50.64475 | 1.65332 | 37995 ft | 441 kts | 316° |
| 2026-05-04 18:19 | 50.71397 | 1.55783 | 37994 ft | 440 kts | 316° |
| 2026-05-04 18:19 | 50.75940 | 1.49391 | 37993 ft | 439 kts | 312° |
| 2026-05-04 18:20 | 50.79500 | 1.41670 | 37993 ft | 434 kts | 294° |
| 2026-05-04 18:20 | 50.82174 | 1.33128 | 37994 ft | 434 kts | 294° |
| 2026-05-04 18:21 | 50.84841 | 1.24566 | 37996 ft | 434 kts | 294° |
| 2026-05-04 18:21 | 50.87496 | 1.15978 | 37998 ft | 435 kts | 294° |
| 2026-05-04 18:22 | 50.90146 | 1.07368 | 37998 ft | 435 kts | 294° |
| 2026-05-04 18:22 | 50.92795 | 0.98752 | 38000 ft | 435 kts | 294° |
| 2026-05-04 18:23 | 50.95438 | 0.90125 | 37999 ft | 435 kts | 294° |
| 2026-05-04 18:23 | 50.98077 | 0.81491 | 37997 ft | 435 kts | 294° |
| 2026-05-04 18:24 | 51.00717 | 0.72831 | 38000 ft | 436 kts | 294° |
| 2026-05-04 18:24 | 51.03345 | 0.64157 | 38006 ft | 436 kts | 293° |
| 2026-05-04 18:25 | 51.05965 | 0.55461 | 38009 ft | 436 kts | 294° |
| 2026-05-04 18:25 | 51.08570 | 0.46814 | 38013 ft | 436 kts | 294° |
| 2026-05-04 18:26 | 51.11201 | 0.38042 | 38020 ft | 437 kts | 293° |
| 2026-05-04 18:26 | 51.13796 | 0.29370 | 38024 ft | 437 kts | 293° |
| 2026-05-04 18:27 | 51.16400 | 0.20620 | 38024 ft | 437 kts | 293° |
| 2026-05-04 18:27 | 51.19005 | 0.11837 | 38028 ft | 438 kts | 293° |
| 2026-05-04 18:28 | 51.21596 | 0.03058 | 38032 ft | 437 kts | 293° |
| 2026-05-04 18:28 | 51.24179 | -0.05723 | 38025 ft | 437 kts | 294° |
| 2026-05-04 18:29 | 51.26759 | -0.14518 | 38022 ft | 438 kts | 294° |
| 2026-05-04 18:29 | 51.29337 | -0.23341 | 38021 ft | 438 kts | 294° |
| 2026-05-04 18:30 | 51.33219 | -0.36668 | 38024 ft | 438 kts | 294° |
| 2026-05-04 18:31 | 51.35760 | -0.45433 | 38028 ft | 438 kts | 294° |
| 2026-05-04 18:31 | 51.38318 | -0.54287 | 38031 ft | 439 kts | 294° |
| 2026-05-04 18:32 | 51.40877 | -0.63169 | 38034 ft | 439 kts | 293° |
| 2026-05-04 18:32 | 51.43398 | -0.71993 | 38038 ft | 439 kts | 293° |
| 2026-05-04 18:33 | 51.45940 | -0.80898 | 38039 ft | 439 kts | 293° |
| 2026-05-04 18:33 | 51.48473 | -0.89810 | 38038 ft | 438 kts | 293° |
| 2026-05-04 18:34 | 51.50992 | -0.98706 | 38038 ft | 438 kts | 293° |
| 2026-05-04 18:34 | 51.53503 | -1.07629 | 38039 ft | 438 kts | 293° |
| 2026-05-04 18:35 | 51.56007 | -1.16549 | 38040 ft | 438 kts | 293° |
| 2026-05-04 18:35 | 51.58512 | -1.25483 | 38038 ft | 438 kts | 293° |
| 2026-05-04 18:36 | 51.61005 | -1.34420 | 38039 ft | 438 kts | 293° |
| 2026-05-04 18:36 | 51.63488 | -1.43364 | 38038 ft | 437 kts | 293° |
| 2026-05-04 18:37 | 51.65964 | -1.52316 | 38038 ft | 437 kts | 293° |
| 2026-05-04 18:37 | 51.68434 | -1.61272 | 38039 ft | 437 kts | 293° |
| 2026-05-04 18:38 | 51.70900 | -1.70232 | 38039 ft | 437 kts | 294° |
| 2026-05-04 18:38 | 51.73568 | -1.79045 | 38037 ft | 437 kts | 296° |
| 2026-05-04 18:39 | 51.76356 | -1.87765 | 38037 ft | 437 kts | 296° |
| 2026-05-04 18:39 | 51.79108 | -1.96507 | 38037 ft | 437 kts | 296° |
| 2026-05-04 18:40 | 51.81770 | -2.05247 | 38038 ft | 436 kts | 294° |
| 2026-05-04 18:40 | 51.84278 | -2.14180 | 38036 ft | 436 kts | 293° |
| 2026-05-04 18:41 | 51.86695 | -2.23166 | 38034 ft | 435 kts | 292° |
| 2026-05-04 18:41 | 51.89138 | -2.32133 | 38030 ft | 435 kts | 293° |
| 2026-05-04 18:42 | 51.91601 | -2.41093 | 38027 ft | 435 kts | 293° |
| 2026-05-04 18:42 | 51.94064 | -2.50064 | 38027 ft | 436 kts | 293° |
| 2026-05-04 18:43 | 51.96520 | -2.59045 | 38031 ft | 436 kts | 293° |
| 2026-05-04 18:43 | 51.98957 | -2.68041 | 38027 ft | 436 kts | 293° |
| 2026-05-04 18:44 | 52.01387 | -2.77058 | 38033 ft | 436 kts | 293° |
| 2026-05-04 18:44 | 52.03814 | -2.86062 | 38042 ft | 435 kts | 293° |
| 2026-05-04 18:45 | 52.06237 | -2.95073 | 38047 ft | 434 kts | 294° |
| 2026-05-04 18:45 | 52.08644 | -3.04083 | 38047 ft | 434 kts | 293° |
| 2026-05-04 18:46 | 52.11025 | -3.13050 | 38049 ft | 434 kts | 293° |
| 2026-05-04 18:46 | 52.13407 | -3.22086 | 38051 ft | 435 kts | 293° |
| 2026-05-04 18:47 | 52.15811 | -3.31219 | 37629 ft | 442 kts | 294° |
| 2026-05-04 18:47 | 52.17017 | -3.35799 | 37128 ft | 438 kts | 294° |
| 2026-05-04 18:47 | 52.18211 | -3.40342 | 36637 ft | 434 kts | 294° |
| 2026-05-04 18:47 | 52.19391 | -3.44845 | 36125 ft | 430 kts | 294° |
| 2026-05-04 18:48 | 52.20568 | -3.49320 | 35609 ft | 428 kts | 294° |
| 2026-05-04 18:48 | 52.21738 | -3.53771 | 35084 ft | 425 kts | 294° |
| 2026-05-04 18:48 | 52.22896 | -3.58194 | 34579 ft | 424 kts | 294° |
| 2026-05-04 18:48 | 52.24048 | -3.62611 | 34048 ft | 422 kts | 294° |
| 2026-05-04 18:49 | 52.25192 | -3.67009 | 33544 ft | 420 kts | 294° |
| 2026-05-04 18:49 | 52.26328 | -3.71394 | 33020 ft | 418 kts | 294° |
| 2026-05-04 18:49 | 52.27457 | -3.75765 | 32511 ft | 417 kts | 294° |
| 2026-05-04 18:49 | 52.28580 | -3.80112 | 32004 ft | 415 kts | 294° |
| 2026-05-04 18:50 | 52.29698 | -3.84445 | 31511 ft | 412 kts | 294° |
| 2026-05-04 18:50 | 52.30810 | -3.88757 | 31014 ft | 410 kts | 294° |
| 2026-05-04 18:50 | 52.31907 | -3.93034 | 30535 ft | 408 kts | 293° |
| 2026-05-04 18:50 | 52.33000 | -3.97298 | 30061 ft | 405 kts | 293° |
| 2026-05-04 18:51 | 52.34069 | -4.01488 | 29605 ft | 402 kts | 293° |
| 2026-05-04 18:51 | 52.35138 | -4.05703 | 29152 ft | 400 kts | 293° |
| 2026-05-04 18:51 | 52.36200 | -4.09889 | 28710 ft | 397 kts | 293° |
| 2026-05-04 18:51 | 52.37252 | -4.14039 | 28281 ft | 394 kts | 293° |
| 2026-05-04 18:52 | 52.38298 | -4.18158 | 27846 ft | 391 kts | 293° |
| 2026-05-04 18:52 | 52.39337 | -4.22254 | 27401 ft | 388 kts | 293° |
| 2026-05-04 18:52 | 52.40369 | -4.26328 | 26948 ft | 386 kts | 293° |
| 2026-05-04 18:52 | 52.41391 | -4.30376 | 26491 ft | 383 kts | 293° |
| 2026-05-04 18:53 | 52.42420 | -4.34389 | 26030 ft | 381 kts | 296° |
| 2026-05-04 18:53 | 52.43757 | -4.38104 | 25573 ft | 377 kts | 308° |
| 2026-05-04 18:53 | 52.45461 | -4.41336 | 25112 ft | 374 kts | 314° |
| 2026-05-04 18:53 | 52.47241 | -4.44430 | 24629 ft | 372 kts | 314° |
| 2026-05-04 18:54 | 52.49010 | -4.47514 | 24148 ft | 370 kts | 314° |
| 2026-05-04 18:54 | 52.50766 | -4.50580 | 23676 ft | 368 kts | 314° |
| 2026-05-04 18:54 | 52.52510 | -4.53634 | 23197 ft | 366 kts | 314° |
| 2026-05-04 18:54 | 52.54243 | -4.56679 | 22717 ft | 364 kts | 314° |
| 2026-05-04 18:55 | 52.55967 | -4.59715 | 22253 ft | 362 kts | 314° |
| 2026-05-04 18:55 | 52.59382 | -4.65741 | 21349 ft | 358 kts | 314° |
| 2026-05-04 18:55 | 52.61081 | -4.68738 | 20899 ft | 357 kts | 314° |
| 2026-05-04 18:56 | 52.62771 | -4.71715 | 20452 ft | 355 kts | 314° |
| 2026-05-04 18:56 | 52.64452 | -4.74679 | 20005 ft | 353 kts | 314° |
| 2026-05-04 18:56 | 52.66120 | -4.77623 | 19566 ft | 351 kts | 314° |
| 2026-05-04 18:56 | 52.67781 | -4.80556 | 19125 ft | 349 kts | 313° |
| 2026-05-04 18:57 | 52.69431 | -4.83479 | 18689 ft | 347 kts | 313° |
| 2026-05-04 18:57 | 52.71049 | -4.86352 | 18262 ft | 346 kts | 313° |
| 2026-05-04 18:57 | 52.72680 | -4.89254 | 17835 ft | 344 kts | 313° |
| 2026-05-04 18:57 | 52.74304 | -4.92150 | 17419 ft | 342 kts | 313° |
| 2026-05-04 18:58 | 52.75914 | -4.95028 | 16996 ft | 341 kts | 313° |
| 2026-05-04 18:58 | 52.77519 | -4.97895 | 16580 ft | 339 kts | 313° |
| 2026-05-04 18:58 | 52.79115 | -5.00744 | 16160 ft | 337 kts | 313° |
| 2026-05-04 18:58 | 52.80703 | -5.03578 | 15764 ft | 335 kts | 313° |
| 2026-05-04 18:59 | 52.82284 | -5.06403 | 15359 ft | 334 kts | 313° |
| 2026-05-04 18:59 | 52.83856 | -5.09214 | 14957 ft | 332 kts | 313° |
| 2026-05-04 18:59 | 52.85418 | -5.12013 | 14558 ft | 330 kts | 313° |
| 2026-05-04 18:59 | 52.86966 | -5.14797 | 14155 ft | 328 kts | 313° |
| 2026-05-04 19:00 | 52.88506 | -5.17567 | 13751 ft | 326 kts | 313° |
| 2026-05-04 19:00 | 52.89522 | -5.19397 | 13484 ft | 325 kts | 313° |
| 2026-05-04 19:00 | 52.91046 | -5.22145 | 13073 ft | 323 kts | 313° |
| 2026-05-04 19:00 | 52.92562 | -5.24876 | 12674 ft | 321 kts | 313° |
| 2026-05-04 19:01 | 52.94071 | -5.27597 | 12268 ft | 319 kts | 313° |
| 2026-05-04 19:01 | 52.96044 | -5.31174 | 11722 ft | 316 kts | 312° |
| 2026-05-04 19:01 | 52.97523 | -5.33856 | 11312 ft | 314 kts | 313° |
| 2026-05-04 19:01 | 52.98992 | -5.36518 | 10904 ft | 311 kts | 313° |
| 2026-05-04 19:02 | 52.99980 | -5.38308 | 10619 ft | 310 kts | 313° |
| 2026-05-04 19:02 | 53.01430 | -5.40941 | 10204 ft | 307 kts | 312° |
| 2026-05-04 19:02 | 53.02830 | -5.43494 | 9950 ft | 292 kts | 312° |
| 2026-05-04 19:02 | 53.04148 | -5.45902 | 9937 ft | 276 kts | 312° |
| 2026-05-04 19:03 | 53.05435 | -5.48249 | 9525 ft | 274 kts | 312° |
| 2026-05-04 19:03 | 53.06823 | -5.50410 | 9064 ft | 273 kts | 324° |
| 2026-05-04 19:03 | 53.08414 | -5.52097 | 8718 ft | 270 kts | 327° |
| 2026-05-04 19:03 | 53.09995 | -5.53752 | 8365 ft | 267 kts | 327° |
| 2026-05-04 19:04 | 53.11561 | -5.55405 | 8003 ft | 266 kts | 327° |
| 2026-05-04 19:04 | 53.13117 | -5.57045 | 7632 ft | 263 kts | 327° |
| 2026-05-04 19:04 | 53.14657 | -5.58669 | 7249 ft | 261 kts | 327° |
| 2026-05-04 19:04 | 53.16174 | -5.60267 | 7074 ft | 255 kts | 327° |
| 2026-05-04 19:05 | 53.17675 | -5.61829 | 7076 ft | 251 kts | 330° |
| 2026-05-04 19:05 | 53.19272 | -5.62680 | 7081 ft | 237 kts | 354° |
| 2026-05-04 19:05 | 53.20896 | -5.62364 | 7088 ft | 238 kts | 18° |
| 2026-05-04 19:05 | 53.22335 | -5.60989 | 7089 ft | 241 kts | 34° |
| 2026-05-04 19:06 | 53.23682 | -5.59323 | 7083 ft | 241 kts | 34° |
| 2026-05-04 19:06 | 53.25029 | -5.57649 | 7086 ft | 241 kts | 34° |
| 2026-05-04 19:06 | 53.26375 | -5.55977 | 7088 ft | 241 kts | 34° |
| 2026-05-04 19:06 | 53.27722 | -5.54304 | 7085 ft | 241 kts | 34° |
| 2026-05-04 19:07 | 53.29147 | -5.52856 | 7083 ft | 239 kts | 20° |
| 2026-05-04 19:07 | 53.30735 | -5.52097 | 7084 ft | 237 kts | 10° |
| 2026-05-04 19:07 | 53.32344 | -5.51509 | 7087 ft | 237 kts | 10° |
| 2026-05-04 19:07 | 53.33940 | -5.50919 | 7084 ft | 238 kts | 10° |
| 2026-05-04 19:08 | 53.35552 | -5.50319 | 7082 ft | 238 kts | 10° |
| 2026-05-04 19:08 | 53.37164 | -5.49715 | 7081 ft | 237 kts | 10° |
| 2026-05-04 19:08 | 53.38775 | -5.49111 | 7081 ft | 237 kts | 10° |
| 2026-05-04 19:08 | 53.40403 | -5.48817 | 7081 ft | 235 kts | 355° |
| 2026-05-04 19:09 | 53.42006 | -5.49240 | 7080 ft | 233 kts | 347° |
| 2026-05-04 19:09 | 53.43603 | -5.49782 | 7081 ft | 234 kts | 347° |
| 2026-05-04 19:09 | 53.45197 | -5.50320 | 7081 ft | 234 kts | 347° |
| 2026-05-04 19:09 | 53.46797 | -5.50866 | 7080 ft | 234 kts | 347° |
| 2026-05-04 19:10 | 53.48392 | -5.51410 | 7082 ft | 234 kts | 347° |
| 2026-05-04 19:10 | 53.49984 | -5.51954 | 7089 ft | 233 kts | 347° |
| 2026-05-04 19:10 | 53.51523 | -5.52787 | 7093 ft | 233 kts | 332° |
| 2026-05-04 19:10 | 53.52877 | -5.54267 | 7090 ft | 232 kts | 323° |
| 2026-05-04 19:11 | 53.54191 | -5.55846 | 7083 ft | 232 kts | 324° |
| 2026-05-04 19:11 | 53.55508 | -5.57417 | 7086 ft | 232 kts | 324° |
| 2026-05-04 19:11 | 53.56824 | -5.58983 | 7090 ft | 232 kts | 324° |
| 2026-05-04 19:11 | 53.57979 | -5.60848 | 7087 ft | 231 kts | 302° |
| 2026-05-04 19:12 | 53.58488 | -5.63393 | 7084 ft | 233 kts | 275° |
| 2026-05-04 19:12 | 53.57197 | -5.68234 | 7092 ft | 243 kts | 223° |
| 2026-05-04 19:12 | 53.55884 | -5.70042 | 7087 ft | 245 kts | 222° |
| 2026-05-04 19:13 | 53.54558 | -5.71848 | 6896 ft | 246 kts | 222° |
| 2026-05-04 19:13 | 53.53230 | -5.73656 | 6490 ft | 245 kts | 222° |
| 2026-05-04 19:13 | 53.51909 | -5.75453 | 5931 ft | 244 kts | 222° |
| 2026-05-04 19:13 | 53.50593 | -5.77249 | 5416 ft | 242 kts | 222° |
| 2026-05-04 19:14 | 53.49305 | -5.79012 | 5156 ft | 238 kts | 221° |
| 2026-05-04 19:14 | 53.48023 | -5.80779 | 4918 ft | 239 kts | 224° |
| 2026-05-04 19:14 | 53.46883 | -5.82774 | 4658 ft | 236 kts | 229° |
| 2026-05-04 19:14 | 53.45767 | -5.84783 | 4429 ft | 236 kts | 229° |
| 2026-05-04 19:15 | 53.44650 | -5.86783 | 4204 ft | 234 kts | 229° |
| 2026-05-04 19:15 | 53.43535 | -5.88771 | 3985 ft | 231 kts | 229° |
| 2026-05-04 19:15 | 53.42450 | -5.90709 | 3786 ft | 225 kts | 228° |
| 2026-05-04 19:15 | 53.41405 | -5.92620 | 3570 ft | 219 kts | 234° |
| 2026-05-04 19:16 | 53.40693 | -5.94821 | 3369 ft | 211 kts | 253° |
| 2026-05-04 19:16 | 53.40464 | -5.97200 | 3172 ft | 204 kts | 273° |
| 2026-05-04 19:16 | 53.40581 | -5.99496 | 3085 ft | 191 kts | 277° |
| 2026-05-04 19:16 | 53.40704 | -6.01650 | 2909 ft | 182 kts | 277° |
| 2026-05-04 19:17 | 53.40826 | -6.03776 | 2688 ft | 184 kts | 277° |
| 2026-05-04 19:17 | 53.40949 | -6.05917 | 2461 ft | 185 kts | 276° |
| 2026-05-04 19:17 | 53.41069 | -6.08031 | 2223 ft | 184 kts | 276° |
| 2026-05-04 19:17 | 53.41189 | -6.10142 | 1978 ft | 180 kts | 276° |
| 2026-05-04 19:18 | 53.41306 | -6.12205 | 1734 ft | 173 kts | 276° |
| 2026-05-04 19:18 | 53.41415 | -6.14145 | 1507 ft | 161 kts | 275° |
| 2026-05-04 19:18 | 53.41516 | -6.15940 | 1327 ft | 148 kts | 275° |
| 2026-05-04 19:18 | 53.41610 | -6.17613 | 1120 ft | 141 kts | 275° |
| 2026-05-04 19:19 | 53.41701 | -6.19233 | 935 ft | 139 kts | 275° |
| 2026-05-04 19:19 | 53.41791 | -6.20837 | 747 ft | 137 kts | 274° |
| 2026-05-04 19:19 | 53.41878 | -6.22425 | 575 ft | 137 kts | 274° |
| 2026-05-04 19:19 | 53.41968 | -6.24009 | 388 ft | 136 kts | 275° |
| 2026-05-04 19:20 | 53.42061 | -6.25583 | 219 ft | 135 kts | 274° |
| 2026-05-04 19:20 | 53.42129 | -6.26935 | 212 ft | 82 kts | 275° |
| 2026-05-04 19:20 | 53.42157 | -6.27441 | 210 ft | 24 kts | 274° |
| 2026-05-04 19:20 | 53.42181 | -6.27729 | 213 ft | 26 kts | 287° |
| 2026-05-04 19:21 | 53.42232 | -6.27939 | 211 ft | 20 kts | 297° |
| 2026-05-04 19:21 | 53.42325 | -6.28115 | 211 ft | 20 kts | 356° |
| 2026-05-04 19:21 | 53.42356 | -6.27921 | 211 ft | 20 kts | 94° |
| 2026-05-04 19:21 | 53.42343 | -6.27672 | 211 ft | 23 kts | 95° |
| 2026-05-04 19:22 | 53.42326 | -6.27402 | 211 ft | 21 kts | 95° |
| 2026-05-04 19:22 | 53.42313 | -6.27145 | 211 ft | 23 kts | 95° |
| 2026-05-04 19:22 | 53.42301 | -6.26909 | 211 ft | 20 kts | 95° |
| 2026-05-04 19:22 | 53.42287 | -6.26658 | 211 ft | 23 kts | 96° |
| 2026-05-04 19:23 | 53.42271 | -6.26398 | 216 ft | 20 kts | 96° |
| 2026-05-04 19:23 | 53.42258 | -6.26146 | 211 ft | 23 kts | 95° |
| 2026-05-04 19:23 | 53.42242 | -6.25867 | 211 ft | 22 kts | 95° |
| 2026-05-04 19:23 | 53.42230 | -6.25635 | 211 ft | 21 kts | 95° |
| 2026-05-04 19:24 | 53.42216 | -6.25390 | 211 ft | 19 kts | 96° |
| 2026-05-04 19:24 | 53.42204 | -6.25153 | 211 ft | 22 kts | 94° |
| 2026-05-04 19:24 | 53.42265 | -6.24930 | 211 ft | 23 kts | 44° |
| 2026-05-04 19:24 | 53.42373 | -6.24747 | 216 ft | 22 kts | 46° |
| 2026-05-04 19:25 | 53.42441 | -6.24573 | 211 ft | 16 kts | 63° |
| 2026-05-04 19:25 | 53.42483 | -6.24464 | 211 ft | 8 kts | 49° |
| 2026-05-04 19:25 | 53.42497 | -6.24394 | 211 ft | 6 kts | 111° |
| 2026-05-04 19:25 | 53.42470 | -6.24349 | 212 ft | 5 kts | 138° |
| 2026-05-04 19:26 | 53.42462 | -6.24337 | 211 ft | 0 kts | 136° |